sensor_id;sensor_type;location;lat;lon;timestamp;P1;durP1;ratioP1;P2;durP2;ratioP2
4186;SDS011;2107;52.306;10.484;2022-09-09T00:02:10;0.00;;;0.00;;
4186;SDS011;2107;52.306;10.484;2022-09-09T00:04:45;0.00;;;0.00;;
4186;SDS011;2107;52.306;10.484;2022-09-09T00:07:23;0.00;;;0.00;;
4186;SDS011;2107;52.306;10.484;2022-09-09T00:09:59;0.00;;;0.00;;
4186;SDS011;2107;52.306;10.484;2022-09-09T00:12:36;0.00;;;0.00;;
4186;SDS011;2107;52.306;10.484;2022-09-09T00:15:11;0.00;;;0.00;;
4186;SDS011;2107;52.306;10.484;2022-09-09T00:17:42;0.00;;;0.00;;
4186;SDS011;2107;52.306;10.484;2022-09-09T00:20:14;0.00;;;0.00;;
4186;SDS011;2107;52.306;10.484;2022-09-09T00:22:51;0.00;;;0.00;;
4186;SDS011;2107;52.306;10.484;2022-09-09T00:25:26;0.00;;;0.00;;
4186;SDS011;2107;52.306;10.484;2022-09-09T00:27:59;0.00;;;0.00;;
4186;SDS011;2107;52.306;10.484;2022-09-09T00:30:26;0.00;;;0.00;;
4186;SDS011;2107;52.306;10.484;2022-09-09T00:32:58;0.00;;;0.00;;
4186;SDS011;2107;52.306;10.484;2022-09-09T00:35:27;0.00;;;0.00;;
4186;SDS011;2107;52.306;10.484;2022-09-09T00:38:00;0.00;;;0.00;;
4186;SDS011;2107;52.306;10.484;2022-09-09T00:40:32;0.00;;;0.00;;
4186;SDS011;2107;52.306;10.484;2022-09-09T00:43:06;0.00;;;0.00;;
4186;SDS011;2107;52.306;10.484;2022-09-09T00:45:48;0.00;;;0.00;;
4186;SDS011;2107;52.306;10.484;2022-09-09T00:48:43;0.00;;;0.00;;
4186;SDS011;2107;52.306;10.484;2022-09-09T00:51:18;0.00;;;0.00;;
4186;SDS011;2107;52.306;10.484;2022-09-09T00:54:02;0.00;;;0.00;;
4186;SDS011;2107;52.306;10.484;2022-09-09T00:56:42;0.00;;;0.00;;
4186;SDS011;2107;52.306;10.484;2022-09-09T00:59:20;0.00;;;0.00;;
4186;SDS011;2107;52.306;10.484;2022-09-09T01:01:54;0.00;;;0.00;;
4186;SDS011;2107;52.306;10.484;2022-09-09T01:04:23;0.00;;;0.00;;
4186;SDS011;2107;52.306;10.484;2022-09-09T01:07:01;0.00;;;0.00;;
4186;SDS011;2107;52.306;10.484;2022-09-09T01:09:41;0.00;;;0.00;;
4186;SDS011;2107;52.306;10.484;2022-09-09T01:12:23;0.00;;;0.00;;
4186;SDS011;2107;52.306;10.484;2022-09-09T01:14:53;0.00;;;0.00;;
4186;SDS011;2107;52.306;10.484;2022-09-09T01:17:28;0.00;;;0.00;;
4186;SDS011;2107;52.306;10.484;2022-09-09T01:20:02;0.00;;;0.00;;
4186;SDS011;2107;52.306;10.484;2022-09-09T01:22:34;0.00;;;0.00;;
4186;SDS011;2107;52.306;10.484;2022-09-09T01:28:29;0.00;;;0.00;;
4186;SDS011;2107;52.306;10.484;2022-09-09T01:31:00;0.00;;;0.00;;
4186;SDS011;2107;52.306;10.484;2022-09-09T01:33:29;0.00;;;0.00;;
4186;SDS011;2107;52.306;10.484;2022-09-09T01:35:57;0.00;;;0.00;;
4186;SDS011;2107;52.306;10.484;2022-09-09T01:38:26;0.00;;;0.00;;
4186;SDS011;2107;52.306;10.484;2022-09-09T01:40:56;0.00;;;0.00;;
4186;SDS011;2107;52.306;10.484;2022-09-09T01:43:24;0.00;;;0.00;;
4186;SDS011;2107;52.306;10.484;2022-09-09T01:45:52;0.00;;;0.00;;
4186;SDS011;2107;52.306;10.484;2022-09-09T01:48:21;0.00;;;0.00;;
4186;SDS011;2107;52.306;10.484;2022-09-09T01:50:49;0.00;;;0.00;;
4186;SDS011;2107;52.306;10.484;2022-09-09T01:53:17;0.00;;;0.00;;
4186;SDS011;2107;52.306;10.484;2022-09-09T01:55:46;0.00;;;0.00;;
4186;SDS011;2107;52.306;10.484;2022-09-09T01:58:28;0.00;;;0.00;;
4186;SDS011;2107;52.306;10.484;2022-09-09T02:01:05;0.00;;;0.00;;
4186;SDS011;2107;52.306;10.484;2022-09-09T02:03:38;0.00;;;0.00;;
4186;SDS011;2107;52.306;10.484;2022-09-09T02:06:14;0.00;;;0.00;;
4186;SDS011;2107;52.306;10.484;2022-09-09T02:08:50;0.00;;;0.00;;
4186;SDS011;2107;52.306;10.484;2022-09-09T02:11:20;0.00;;;0.00;;
4186;SDS011;2107;52.306;10.484;2022-09-09T02:13:51;0.00;;;0.00;;
4186;SDS011;2107;52.306;10.484;2022-09-09T02:16:23;0.00;;;0.00;;
4186;SDS011;2107;52.306;10.484;2022-09-09T02:18:55;0.00;;;0.00;;
4186;SDS011;2107;52.306;10.484;2022-09-09T02:21:27;0.00;;;0.00;;
4186;SDS011;2107;52.306;10.484;2022-09-09T02:23:56;0.00;;;0.00;;
4186;SDS011;2107;52.306;10.484;2022-09-09T02:26:25;0.00;;;0.00;;
4186;SDS011;2107;52.306;10.484;2022-09-09T02:28:56;0.00;;;0.00;;
4186;SDS011;2107;52.306;10.484;2022-09-09T02:31:25;0.00;;;0.00;;
4186;SDS011;2107;52.306;10.484;2022-09-09T02:33:53;0.00;;;0.00;;
4186;SDS011;2107;52.306;10.484;2022-09-09T02:36:23;0.00;;;0.00;;
4186;SDS011;2107;52.306;10.484;2022-09-09T02:38:54;0.00;;;0.00;;
4186;SDS011;2107;52.306;10.484;2022-09-09T02:41:24;0.00;;;0.00;;
4186;SDS011;2107;52.306;10.484;2022-09-09T02:43:58;0.00;;;0.00;;
4186;SDS011;2107;52.306;10.484;2022-09-09T02:46:27;0.00;;;0.00;;
4186;SDS011;2107;52.306;10.484;2022-09-09T02:49:08;0.00;;;0.00;;
4186;SDS011;2107;52.306;10.484;2022-09-09T02:51:40;0.00;;;0.00;;
4186;SDS011;2107;52.306;10.484;2022-09-09T02:54:16;0.00;;;0.00;;
4186;SDS011;2107;52.306;10.484;2022-09-09T02:56:51;0.00;;;0.00;;
4186;SDS011;2107;52.306;10.484;2022-09-09T02:59:22;0.00;;;0.00;;
4186;SDS011;2107;52.306;10.484;2022-09-09T03:01:52;0.00;;;0.00;;
4186;SDS011;2107;52.306;10.484;2022-09-09T03:04:19;0.00;;;0.00;;
4186;SDS011;2107;52.306;10.484;2022-09-09T03:06:46;0.00;;;0.00;;
4186;SDS011;2107;52.306;10.484;2022-09-09T03:09:14;0.00;;;0.00;;
4186;SDS011;2107;52.306;10.484;2022-09-09T03:11:41;0.00;;;0.00;;
4186;SDS011;2107;52.306;10.484;2022-09-09T03:14:08;0.00;;;0.00;;
4186;SDS011;2107;52.306;10.484;2022-09-09T03:16:37;0.00;;;0.00;;
4186;SDS011;2107;52.306;10.484;2022-09-09T03:19:04;0.00;;;0.00;;
4186;SDS011;2107;52.306;10.484;2022-09-09T03:21:32;0.00;;;0.00;;
4186;SDS011;2107;52.306;10.484;2022-09-09T03:23:58;0.00;;;0.00;;
4186;SDS011;2107;52.306;10.484;2022-09-09T03:26:28;0.00;;;0.00;;
4186;SDS011;2107;52.306;10.484;2022-09-09T03:28:55;0.00;;;0.00;;
4186;SDS011;2107;52.306;10.484;2022-09-09T03:31:22;0.00;;;0.00;;
4186;SDS011;2107;52.306;10.484;2022-09-09T03:33:51;0.00;;;0.00;;
4186;SDS011;2107;52.306;10.484;2022-09-09T03:36:18;0.00;;;0.00;;
4186;SDS011;2107;52.306;10.484;2022-09-09T03:38:45;0.00;;;0.00;;
4186;SDS011;2107;52.306;10.484;2022-09-09T03:41:11;0.00;;;0.00;;
4186;SDS011;2107;52.306;10.484;2022-09-09T03:43:39;0.00;;;0.00;;
4186;SDS011;2107;52.306;10.484;2022-09-09T03:46:06;0.00;;;0.00;;
4186;SDS011;2107;52.306;10.484;2022-09-09T03:48:33;0.00;;;0.00;;
4186;SDS011;2107;52.306;10.484;2022-09-09T03:51:02;0.00;;;0.00;;
4186;SDS011;2107;52.306;10.484;2022-09-09T03:53:29;0.00;;;0.00;;
4186;SDS011;2107;52.306;10.484;2022-09-09T03:55:57;0.00;;;0.00;;
4186;SDS011;2107;52.306;10.484;2022-09-09T03:58:26;0.00;;;0.00;;
4186;SDS011;2107;52.306;10.484;2022-09-09T04:00:54;0.00;;;0.00;;
4186;SDS011;2107;52.306;10.484;2022-09-09T04:03:21;0.00;;;0.00;;
4186;SDS011;2107;52.306;10.484;2022-09-09T04:05:49;0.00;;;0.00;;
4186;SDS011;2107;52.306;10.484;2022-09-09T04:08:18;0.00;;;0.00;;
4186;SDS011;2107;52.306;10.484;2022-09-09T04:10:45;0.00;;;0.00;;
4186;SDS011;2107;52.306;10.484;2022-09-09T04:13:13;0.00;;;0.00;;
4186;SDS011;2107;52.306;10.484;2022-09-09T04:15:41;0.00;;;0.00;;
4186;SDS011;2107;52.306;10.484;2022-09-09T04:18:08;0.00;;;0.00;;
4186;SDS011;2107;52.306;10.484;2022-09-09T04:20:36;0.00;;;0.00;;
4186;SDS011;2107;52.306;10.484;2022-09-09T04:23:04;0.00;;;0.00;;
4186;SDS011;2107;52.306;10.484;2022-09-09T04:25:32;0.00;;;0.00;;
4186;SDS011;2107;52.306;10.484;2022-09-09T04:27:59;0.00;;;0.00;;
4186;SDS011;2107;52.306;10.484;2022-09-09T04:30:27;0.00;;;0.00;;
4186;SDS011;2107;52.306;10.484;2022-09-09T04:32:54;0.00;;;0.00;;
4186;SDS011;2107;52.306;10.484;2022-09-09T04:35:22;0.00;;;0.00;;
4186;SDS011;2107;52.306;10.484;2022-09-09T04:37:49;0.00;;;0.00;;
4186;SDS011;2107;52.306;10.484;2022-09-09T04:40:16;0.00;;;0.00;;
4186;SDS011;2107;52.306;10.484;2022-09-09T04:42:44;0.00;;;0.00;;
4186;SDS011;2107;52.306;10.484;2022-09-09T04:45:13;0.00;;;0.00;;
4186;SDS011;2107;52.306;10.484;2022-09-09T04:47:40;0.00;;;0.00;;
4186;SDS011;2107;52.306;10.484;2022-09-09T04:50:07;0.00;;;0.00;;
4186;SDS011;2107;52.306;10.484;2022-09-09T04:52:35;0.00;;;0.00;;
4186;SDS011;2107;52.306;10.484;2022-09-09T04:55:02;0.00;;;0.00;;
4186;SDS011;2107;52.306;10.484;2022-09-09T04:57:30;0.00;;;0.00;;
4186;SDS011;2107;52.306;10.484;2022-09-09T04:59:59;0.00;;;0.00;;
4186;SDS011;2107;52.306;10.484;2022-09-09T05:02:27;0.00;;;0.00;;
4186;SDS011;2107;52.306;10.484;2022-09-09T05:04:55;0.00;;;0.00;;
4186;SDS011;2107;52.306;10.484;2022-09-09T05:07:22;0.00;;;0.00;;
4186;SDS011;2107;52.306;10.484;2022-09-09T05:09:51;0.00;;;0.00;;
4186;SDS011;2107;52.306;10.484;2022-09-09T05:12:18;0.00;;;0.00;;
4186;SDS011;2107;52.306;10.484;2022-09-09T05:14:45;0.00;;;0.00;;
4186;SDS011;2107;52.306;10.484;2022-09-09T05:17:13;0.00;;;0.00;;
4186;SDS011;2107;52.306;10.484;2022-09-09T05:19:41;0.00;;;0.00;;
4186;SDS011;2107;52.306;10.484;2022-09-09T05:22:09;0.00;;;0.00;;
4186;SDS011;2107;52.306;10.484;2022-09-09T05:24:36;0.00;;;0.00;;
4186;SDS011;2107;52.306;10.484;2022-09-09T05:27:03;0.00;;;0.00;;
4186;SDS011;2107;52.306;10.484;2022-09-09T05:29:31;0.00;;;0.00;;
4186;SDS011;2107;52.306;10.484;2022-09-09T05:31:58;0.00;;;0.00;;
4186;SDS011;2107;52.306;10.484;2022-09-09T05:34:27;0.00;;;0.00;;
4186;SDS011;2107;52.306;10.484;2022-09-09T05:36:57;0.00;;;0.00;;
4186;SDS011;2107;52.306;10.484;2022-09-09T05:39:24;0.00;;;0.00;;
4186;SDS011;2107;52.306;10.484;2022-09-09T05:41:51;0.00;;;0.00;;
4186;SDS011;2107;52.306;10.484;2022-09-09T05:44:18;0.00;;;0.00;;
4186;SDS011;2107;52.306;10.484;2022-09-09T05:46:45;0.00;;;0.00;;
4186;SDS011;2107;52.306;10.484;2022-09-09T05:49:12;0.00;;;0.00;;
4186;SDS011;2107;52.306;10.484;2022-09-09T05:51:42;0.00;;;0.00;;
4186;SDS011;2107;52.306;10.484;2022-09-09T05:54:09;0.00;;;0.00;;
4186;SDS011;2107;52.306;10.484;2022-09-09T05:56:38;0.00;;;0.00;;
4186;SDS011;2107;52.306;10.484;2022-09-09T05:59:05;0.00;;;0.00;;
4186;SDS011;2107;52.306;10.484;2022-09-09T06:01:33;0.00;;;0.00;;
4186;SDS011;2107;52.306;10.484;2022-09-09T06:04:01;0.10;;;0.10;;
4186;SDS011;2107;52.306;10.484;2022-09-09T06:06:30;0.20;;;0.20;;
4186;SDS011;2107;52.306;10.484;2022-09-09T06:09:03;0.20;;;0.20;;
4186;SDS011;2107;52.306;10.484;2022-09-09T06:11:34;0.20;;;0.20;;
4186;SDS011;2107;52.306;10.484;2022-09-09T06:14:04;0.20;;;0.20;;
4186;SDS011;2107;52.306;10.484;2022-09-09T06:16:32;0.10;;;0.10;;
4186;SDS011;2107;52.306;10.484;2022-09-09T06:19:00;0.20;;;0.20;;
4186;SDS011;2107;52.306;10.484;2022-09-09T06:21:29;0.20;;;0.20;;
4186;SDS011;2107;52.306;10.484;2022-09-09T06:23:57;0.20;;;0.20;;
4186;SDS011;2107;52.306;10.484;2022-09-09T06:26:26;0.30;;;0.30;;
4186;SDS011;2107;52.306;10.484;2022-09-09T06:28:55;0.40;;;0.40;;
4186;SDS011;2107;52.306;10.484;2022-09-09T06:31:23;1.40;;;1.40;;
4186;SDS011;2107;52.306;10.484;2022-09-09T06:33:53;1.80;;;1.80;;
4186;SDS011;2107;52.306;10.484;2022-09-09T06:36:21;1.33;;;1.33;;
4186;SDS011;2107;52.306;10.484;2022-09-09T06:38:49;1.90;;;1.90;;
4186;SDS011;2107;52.306;10.484;2022-09-09T06:41:17;1.40;;;1.40;;
4186;SDS011;2107;52.306;10.484;2022-09-09T06:43:46;1.20;;;1.20;;
4186;SDS011;2107;52.306;10.484;2022-09-09T06:46:14;1.17;;;1.17;;
4186;SDS011;2107;52.306;10.484;2022-09-09T06:48:42;1.00;;;1.00;;
4186;SDS011;2107;52.306;10.484;2022-09-09T06:51:11;1.00;;;1.00;;
4186;SDS011;2107;52.306;10.484;2022-09-09T06:53:40;1.20;;;1.20;;
4186;SDS011;2107;52.306;10.484;2022-09-09T06:56:18;1.30;;;1.30;;
4186;SDS011;2107;52.306;10.484;2022-09-09T06:58:48;1.00;;;1.00;;
4186;SDS011;2107;52.306;10.484;2022-09-09T07:01:17;1.10;;;1.10;;
4186;SDS011;2107;52.306;10.484;2022-09-09T07:03:46;0.80;;;0.80;;
4186;SDS011;2107;52.306;10.484;2022-09-09T07:06:16;0.80;;;0.80;;
4186;SDS011;2107;52.306;10.484;2022-09-09T07:08:48;0.80;;;0.80;;
4186;SDS011;2107;52.306;10.484;2022-09-09T07:11:16;0.60;;;0.60;;
4186;SDS011;2107;52.306;10.484;2022-09-09T07:13:43;0.60;;;0.60;;
4186;SDS011;2107;52.306;10.484;2022-09-09T07:16:12;0.40;;;0.40;;
4186;SDS011;2107;52.306;10.484;2022-09-09T07:18:40;0.50;;;0.50;;
4186;SDS011;2107;52.306;10.484;2022-09-09T07:21:08;0.50;;;0.50;;
4186;SDS011;2107;52.306;10.484;2022-09-09T07:23:37;0.60;;;0.60;;
4186;SDS011;2107;52.306;10.484;2022-09-09T07:26:07;0.70;;;0.70;;
4186;SDS011;2107;52.306;10.484;2022-09-09T07:28:35;0.70;;;0.70;;
4186;SDS011;2107;52.306;10.484;2022-09-09T07:31:03;0.80;;;0.80;;
4186;SDS011;2107;52.306;10.484;2022-09-09T07:33:33;0.70;;;0.70;;
4186;SDS011;2107;52.306;10.484;2022-09-09T07:36:05;0.70;;;0.70;;
4186;SDS011;2107;52.306;10.484;2022-09-09T07:38:37;0.80;;;0.80;;
4186;SDS011;2107;52.306;10.484;2022-09-09T07:41:06;0.40;;;0.40;;
4186;SDS011;2107;52.306;10.484;2022-09-09T07:43:36;0.40;;;0.40;;
4186;SDS011;2107;52.306;10.484;2022-09-09T07:46:04;0.40;;;0.40;;
4186;SDS011;2107;52.306;10.484;2022-09-09T07:48:33;0.30;;;0.30;;
4186;SDS011;2107;52.306;10.484;2022-09-09T07:51:04;0.50;;;0.50;;
4186;SDS011;2107;52.306;10.484;2022-09-09T07:53:33;0.60;;;0.60;;
4186;SDS011;2107;52.306;10.484;2022-09-09T07:56:05;0.60;;;0.60;;
4186;SDS011;2107;52.306;10.484;2022-09-09T07:58:34;0.40;;;0.40;;
4186;SDS011;2107;52.306;10.484;2022-09-09T08:01:05;0.40;;;0.40;;
4186;SDS011;2107;52.306;10.484;2022-09-09T08:03:35;0.50;;;0.50;;
4186;SDS011;2107;52.306;10.484;2022-09-09T08:06:02;0.40;;;0.40;;
4186;SDS011;2107;52.306;10.484;2022-09-09T08:08:32;0.40;;;0.40;;
4186;SDS011;2107;52.306;10.484;2022-09-09T08:11:03;0.40;;;0.40;;
4186;SDS011;2107;52.306;10.484;2022-09-09T08:13:32;0.40;;;0.40;;
4186;SDS011;2107;52.306;10.484;2022-09-09T08:16:07;0.50;;;0.50;;
4186;SDS011;2107;52.306;10.484;2022-09-09T08:18:38;0.50;;;0.50;;
4186;SDS011;2107;52.306;10.484;2022-09-09T08:21:08;0.40;;;0.40;;
4186;SDS011;2107;52.306;10.484;2022-09-09T08:23:38;0.40;;;0.40;;
4186;SDS011;2107;52.306;10.484;2022-09-09T08:26:06;0.40;;;0.40;;
4186;SDS011;2107;52.306;10.484;2022-09-09T08:28:36;0.40;;;0.40;;
4186;SDS011;2107;52.306;10.484;2022-09-09T08:31:05;0.50;;;0.50;;
4186;SDS011;2107;52.306;10.484;2022-09-09T08:33:33;0.43;;;0.43;;
4186;SDS011;2107;52.306;10.484;2022-09-09T08:36:03;0.40;;;0.40;;
4186;SDS011;2107;52.306;10.484;2022-09-09T08:38:32;0.50;;;0.50;;
4186;SDS011;2107;52.306;10.484;2022-09-09T08:41:04;0.50;;;0.50;;
4186;SDS011;2107;52.306;10.484;2022-09-09T08:43:46;0.50;;;0.50;;
4186;SDS011;2107;52.306;10.484;2022-09-09T08:46:15;0.50;;;0.50;;
4186;SDS011;2107;52.306;10.484;2022-09-09T08:48:52;0.40;;;0.40;;
4186;SDS011;2107;52.306;10.484;2022-09-09T08:51:27;0.60;;;0.60;;
4186;SDS011;2107;52.306;10.484;2022-09-09T08:53:58;0.40;;;0.40;;
4186;SDS011;2107;52.306;10.484;2022-09-09T08:56:28;0.33;;;0.33;;
4186;SDS011;2107;52.306;10.484;2022-09-09T08:58:59;0.40;;;0.40;;
4186;SDS011;2107;52.306;10.484;2022-09-09T09:04:37;0.30;;;0.30;;
4186;SDS011;2107;52.306;10.484;2022-09-09T09:07:15;0.40;;;0.40;;
4186;SDS011;2107;52.306;10.484;2022-09-09T09:09:52;0.30;;;0.30;;
4186;SDS011;2107;52.306;10.484;2022-09-09T09:12:27;0.30;;;0.30;;
4186;SDS011;2107;52.306;10.484;2022-09-09T09:14:59;0.33;;;0.33;;
4186;SDS011;2107;52.306;10.484;2022-09-09T09:17:27;0.57;;;0.57;;
4186;SDS011;2107;52.306;10.484;2022-09-09T09:19:56;0.50;;;0.50;;
4186;SDS011;2107;52.306;10.484;2022-09-09T09:22:29;0.50;;;0.50;;
4186;SDS011;2107;52.306;10.484;2022-09-09T09:25:02;0.40;;;0.40;;
4186;SDS011;2107;52.306;10.484;2022-09-09T09:27:36;0.50;;;0.50;;
4186;SDS011;2107;52.306;10.484;2022-09-09T09:30:13;0.60;;;0.60;;
4186;SDS011;2107;52.306;10.484;2022-09-09T09:32:43;0.60;;;0.60;;
4186;SDS011;2107;52.306;10.484;2022-09-09T09:35:16;0.50;;;0.50;;
4186;SDS011;2107;52.306;10.484;2022-09-09T09:37:45;0.60;;;0.60;;
4186;SDS011;2107;52.306;10.484;2022-09-09T09:40:13;0.60;;;0.60;;
4186;SDS011;2107;52.306;10.484;2022-09-09T09:42:47;0.60;;;0.60;;
4186;SDS011;2107;52.306;10.484;2022-09-09T09:45:16;0.60;;;0.60;;
4186;SDS011;2107;52.306;10.484;2022-09-09T09:47:57;0.50;;;0.50;;
4186;SDS011;2107;52.306;10.484;2022-09-09T09:50:25;0.40;;;0.40;;
4186;SDS011;2107;52.306;10.484;2022-09-09T09:52:57;0.40;;;0.40;;
4186;SDS011;2107;52.306;10.484;2022-09-09T09:55:26;0.40;;;0.40;;
4186;SDS011;2107;52.306;10.484;2022-09-09T09:58:00;0.30;;;0.30;;
4186;SDS011;2107;52.306;10.484;2022-09-09T10:00:28;0.30;;;0.30;;
4186;SDS011;2107;52.306;10.484;2022-09-09T10:02:55;0.30;;;0.30;;
4186;SDS011;2107;52.306;10.484;2022-09-09T10:05:23;0.40;;;0.40;;
4186;SDS011;2107;52.306;10.484;2022-09-09T10:08:03;0.30;;;0.30;;
4186;SDS011;2107;52.306;10.484;2022-09-09T10:10:35;0.50;;;0.50;;
4186;SDS011;2107;52.306;10.484;2022-09-09T10:13:09;0.40;;;0.40;;
4186;SDS011;2107;52.306;10.484;2022-09-09T10:15:43;0.60;;;0.60;;
4186;SDS011;2107;52.306;10.484;2022-09-09T10:18:35;0.50;;;0.50;;
4186;SDS011;2107;52.306;10.484;2022-09-09T10:21:11;0.40;;;0.40;;
4186;SDS011;2107;52.306;10.484;2022-09-09T10:24:01;0.50;;;0.50;;
4186;SDS011;2107;52.306;10.484;2022-09-09T10:26:45;0.60;;;0.60;;
4186;SDS011;2107;52.306;10.484;2022-09-09T10:29:24;0.90;;;0.90;;
4186;SDS011;2107;52.306;10.484;2022-09-09T10:32:02;0.67;;;0.67;;
4186;SDS011;2107;52.306;10.484;2022-09-09T10:34:47;0.40;;;0.40;;
4186;SDS011;2107;52.306;10.484;2022-09-09T10:37:24;0.40;;;0.40;;
4186;SDS011;2107;52.306;10.484;2022-09-09T10:40:20;0.60;;;0.60;;
4186;SDS011;2107;52.306;10.484;2022-09-09T10:42:56;0.50;;;0.50;;
4186;SDS011;2107;52.306;10.484;2022-09-09T10:45:32;0.40;;;0.40;;
4186;SDS011;2107;52.306;10.484;2022-09-09T10:48:11;0.50;;;0.50;;
4186;SDS011;2107;52.306;10.484;2022-09-09T10:50:59;0.50;;;0.50;;
4186;SDS011;2107;52.306;10.484;2022-09-09T10:53:35;0.60;;;0.60;;
4186;SDS011;2107;52.306;10.484;2022-09-09T10:56:10;0.50;;;0.50;;
4186;SDS011;2107;52.306;10.484;2022-09-09T10:58:40;0.50;;;0.50;;
4186;SDS011;2107;52.306;10.484;2022-09-09T11:01:14;0.40;;;0.40;;
4186;SDS011;2107;52.306;10.484;2022-09-09T11:03:45;0.40;;;0.40;;
4186;SDS011;2107;52.306;10.484;2022-09-09T11:06:17;0.40;;;0.40;;
4186;SDS011;2107;52.306;10.484;2022-09-09T11:08:47;0.40;;;0.40;;
4186;SDS011;2107;52.306;10.484;2022-09-09T11:11:17;0.53;;;0.53;;
4186;SDS011;2107;52.306;10.484;2022-09-09T11:13:48;0.30;;;0.30;;
4186;SDS011;2107;52.306;10.484;2022-09-09T11:16:25;0.50;;;0.50;;
4186;SDS011;2107;52.306;10.484;2022-09-09T11:18:55;0.40;;;0.40;;
4186;SDS011;2107;52.306;10.484;2022-09-09T11:21:27;0.30;;;0.30;;
4186;SDS011;2107;52.306;10.484;2022-09-09T11:23:59;0.40;;;0.40;;
4186;SDS011;2107;52.306;10.484;2022-09-09T11:26:32;0.50;;;0.50;;
4186;SDS011;2107;52.306;10.484;2022-09-09T11:29:08;0.60;;;0.60;;
4186;SDS011;2107;52.306;10.484;2022-09-09T11:31:54;1.00;;;1.00;;
4186;SDS011;2107;52.306;10.484;2022-09-09T11:34:34;0.80;;;0.80;;
4186;SDS011;2107;52.306;10.484;2022-09-09T11:37:23;2.27;;;2.27;;
4186;SDS011;2107;52.306;10.484;2022-09-09T11:40:17;3.00;;;3.00;;
4186;SDS011;2107;52.306;10.484;2022-09-09T11:42:48;2.00;;;2.00;;
4186;SDS011;2107;52.306;10.484;2022-09-09T11:45:19;1.70;;;1.70;;
4186;SDS011;2107;52.306;10.484;2022-09-09T11:47:54;1.10;;;1.10;;
4186;SDS011;2107;52.306;10.484;2022-09-09T11:50:29;0.70;;;0.70;;
4186;SDS011;2107;52.306;10.484;2022-09-09T11:53:18;0.37;;;0.37;;
4186;SDS011;2107;52.306;10.484;2022-09-09T11:55:48;0.40;;;0.40;;
4186;SDS011;2107;52.306;10.484;2022-09-09T11:58:28;0.70;;;0.70;;
4186;SDS011;2107;52.306;10.484;2022-09-09T12:00:58;1.40;;;1.40;;
4186;SDS011;2107;52.306;10.484;2022-09-09T12:03:33;1.43;;;1.43;;
4186;SDS011;2107;52.306;10.484;2022-09-09T12:06:11;2.00;;;2.00;;
4186;SDS011;2107;52.306;10.484;2022-09-09T12:08:42;1.50;;;1.50;;
4186;SDS011;2107;52.306;10.484;2022-09-09T12:11:11;1.30;;;1.30;;
4186;SDS011;2107;52.306;10.484;2022-09-09T12:13:53;1.90;;;1.90;;
4186;SDS011;2107;52.306;10.484;2022-09-09T12:16:28;2.00;;;2.00;;
4186;SDS011;2107;52.306;10.484;2022-09-09T12:19:03;1.80;;;1.80;;
4186;SDS011;2107;52.306;10.484;2022-09-09T12:21:33;1.80;;;1.80;;
4186;SDS011;2107;52.306;10.484;2022-09-09T12:24:06;1.10;;;1.10;;
4186;SDS011;2107;52.306;10.484;2022-09-09T12:26:37;0.80;;;0.80;;
4186;SDS011;2107;52.306;10.484;2022-09-09T12:29:14;0.70;;;0.70;;
4186;SDS011;2107;52.306;10.484;2022-09-09T12:31:51;0.60;;;0.60;;
4186;SDS011;2107;52.306;10.484;2022-09-09T12:34:28;0.50;;;0.50;;
4186;SDS011;2107;52.306;10.484;2022-09-09T12:37:03;0.50;;;0.50;;
4186;SDS011;2107;52.306;10.484;2022-09-09T12:39:35;0.50;;;0.50;;
4186;SDS011;2107;52.306;10.484;2022-09-09T12:42:14;0.50;;;0.50;;
4186;SDS011;2107;52.306;10.484;2022-09-09T12:44:51;0.60;;;0.60;;
4186;SDS011;2107;52.306;10.484;2022-09-09T12:47:19;0.53;;;0.53;;
4186;SDS011;2107;52.306;10.484;2022-09-09T12:49:49;0.60;;;0.60;;
4186;SDS011;2107;52.306;10.484;2022-09-09T12:52:18;0.53;;;0.53;;
4186;SDS011;2107;52.306;10.484;2022-09-09T12:54:51;0.50;;;0.50;;
4186;SDS011;2107;52.306;10.484;2022-09-09T12:57:19;0.40;;;0.40;;
4186;SDS011;2107;52.306;10.484;2022-09-09T12:59:51;0.60;;;0.60;;
4186;SDS011;2107;52.306;10.484;2022-09-09T13:02:30;0.83;;;0.83;;
4186;SDS011;2107;52.306;10.484;2022-09-09T13:05:05;0.60;;;0.60;;
4186;SDS011;2107;52.306;10.484;2022-09-09T13:07:38;0.60;;;0.60;;
4186;SDS011;2107;52.306;10.484;2022-09-09T13:10:07;0.60;;;0.60;;
4186;SDS011;2107;52.306;10.484;2022-09-09T13:12:37;0.60;;;0.60;;
4186;SDS011;2107;52.306;10.484;2022-09-09T13:15:09;0.50;;;0.50;;
4186;SDS011;2107;52.306;10.484;2022-09-09T13:17:42;0.47;;;0.47;;
4186;SDS011;2107;52.306;10.484;2022-09-09T13:20:16;0.60;;;0.60;;
4186;SDS011;2107;52.306;10.484;2022-09-09T13:22:43;0.60;;;0.60;;
4186;SDS011;2107;52.306;10.484;2022-09-09T13:25:17;0.50;;;0.50;;
4186;SDS011;2107;52.306;10.484;2022-09-09T13:27:51;0.50;;;0.50;;
4186;SDS011;2107;52.306;10.484;2022-09-09T13:30:24;0.50;;;0.50;;
4186;SDS011;2107;52.306;10.484;2022-09-09T13:32:59;0.50;;;0.50;;
4186;SDS011;2107;52.306;10.484;2022-09-09T13:35:31;0.70;;;0.70;;
4186;SDS011;2107;52.306;10.484;2022-09-09T13:37:59;0.60;;;0.60;;
4186;SDS011;2107;52.306;10.484;2022-09-09T13:40:34;0.53;;;0.53;;
4186;SDS011;2107;52.306;10.484;2022-09-09T13:43:01;0.60;;;0.60;;
4186;SDS011;2107;52.306;10.484;2022-09-09T13:45:31;0.60;;;0.60;;
4186;SDS011;2107;52.306;10.484;2022-09-09T13:47:59;0.73;;;0.73;;
4186;SDS011;2107;52.306;10.484;2022-09-09T13:50:36;0.80;;;0.80;;
4186;SDS011;2107;52.306;10.484;2022-09-09T13:53:03;0.87;;;0.87;;
4186;SDS011;2107;52.306;10.484;2022-09-09T13:55:30;0.80;;;0.80;;
4186;SDS011;2107;52.306;10.484;2022-09-09T13:57:57;0.90;;;0.90;;
4186;SDS011;2107;52.306;10.484;2022-09-09T14:00:25;1.03;;;1.03;;
4186;SDS011;2107;52.306;10.484;2022-09-09T14:02:56;1.00;;;1.00;;
4186;SDS011;2107;52.306;10.484;2022-09-09T14:05:25;1.00;;;1.00;;
4186;SDS011;2107;52.306;10.484;2022-09-09T14:07:52;0.80;;;0.80;;
4186;SDS011;2107;52.306;10.484;2022-09-09T14:10:19;1.00;;;1.00;;
4186;SDS011;2107;52.306;10.484;2022-09-09T14:12:47;0.90;;;0.90;;
4186;SDS011;2107;52.306;10.484;2022-09-09T14:15:14;1.00;;;1.00;;
4186;SDS011;2107;52.306;10.484;2022-09-09T14:17:41;0.90;;;0.90;;
4186;SDS011;2107;52.306;10.484;2022-09-09T14:20:09;0.90;;;0.90;;
4186;SDS011;2107;52.306;10.484;2022-09-09T14:22:40;0.90;;;0.90;;
4186;SDS011;2107;52.306;10.484;2022-09-09T14:25:09;0.97;;;0.97;;
4186;SDS011;2107;52.306;10.484;2022-09-09T14:27:36;0.80;;;0.80;;
4186;SDS011;2107;52.306;10.484;2022-09-09T14:30:04;0.80;;;0.80;;
4186;SDS011;2107;52.306;10.484;2022-09-09T14:32:32;0.93;;;0.93;;
4186;SDS011;2107;52.306;10.484;2022-09-09T14:34:59;0.80;;;0.80;;
4186;SDS011;2107;52.306;10.484;2022-09-09T14:37:27;0.90;;;0.90;;
4186;SDS011;2107;52.306;10.484;2022-09-09T14:39:56;0.70;;;0.70;;
4186;SDS011;2107;52.306;10.484;2022-09-09T14:42:23;0.80;;;0.80;;
4186;SDS011;2107;52.306;10.484;2022-09-09T14:44:50;0.80;;;0.80;;
4186;SDS011;2107;52.306;10.484;2022-09-09T14:47:17;0.93;;;0.93;;
4186;SDS011;2107;52.306;10.484;2022-09-09T14:49:44;0.70;;;0.70;;
4186;SDS011;2107;52.306;10.484;2022-09-09T14:52:14;0.80;;;0.80;;
4186;SDS011;2107;52.306;10.484;2022-09-09T14:54:43;0.80;;;0.80;;
4186;SDS011;2107;52.306;10.484;2022-09-09T14:57:10;0.80;;;0.80;;
4186;SDS011;2107;52.306;10.484;2022-09-09T14:59:37;1.00;;;1.00;;
4186;SDS011;2107;52.306;10.484;2022-09-09T15:02:04;0.77;;;0.77;;
4186;SDS011;2107;52.306;10.484;2022-09-09T15:04:31;1.00;;;1.00;;
4186;SDS011;2107;52.306;10.484;2022-09-09T15:06:58;0.93;;;0.93;;
4186;SDS011;2107;52.306;10.484;2022-09-09T15:09:25;1.00;;;1.00;;
4186;SDS011;2107;52.306;10.484;2022-09-09T15:11:53;0.90;;;0.90;;
4186;SDS011;2107;52.306;10.484;2022-09-09T15:14:20;1.00;;;1.00;;
4186;SDS011;2107;52.306;10.484;2022-09-09T15:16:47;0.90;;;0.90;;
4186;SDS011;2107;52.306;10.484;2022-09-09T15:19:14;0.97;;;0.97;;
4186;SDS011;2107;52.306;10.484;2022-09-09T15:21:41;0.83;;;0.83;;
4186;SDS011;2107;52.306;10.484;2022-09-09T15:24:08;0.90;;;0.90;;
4186;SDS011;2107;52.306;10.484;2022-09-09T15:26:35;0.80;;;0.80;;
4186;SDS011;2107;52.306;10.484;2022-09-09T15:29:06;0.90;;;0.90;;
4186;SDS011;2107;52.306;10.484;2022-09-09T15:31:33;1.10;;;1.10;;